Погода Кречетовона неделю

Тверская область, Россия

21 - 27 мая
  • 21мая
    Сегодня
    +7°
    +23°
    Ясно и безоблачно
    ВремяПогодаТемператураВлажностьДавлениеВетер, м/сВероятность осадков
    00:00Ясно и безоблачно+10°C86 %744 мм2.0 м/с2 %
    03:00Ясно и безоблачно+9°C93 %744 мм1.7 м/с2 %
    06:00Практически безоблачно+11°C93 %745 мм2.2 м/с2 %
    09:00Ясно и безоблачно+18°C67 %746 мм2.3 м/с2 %
    12:00Ясно и безоблачно+21°C50 %747 мм3.1 м/с2 %
    15:00Ясно и безоблачно+22°C42 %747 мм3.3 м/с3 %
    18:00Ясно и безоблачно+21°C42 %747 мм3.5 м/с2 %
    21:00Ясно и безоблачно+15°C56 %747 мм2.1 м/с2 %
  • 22мая
    Среда
    +8°
    +22°
    Ясно и безоблачно
    ВремяПогодаТемператураВлажностьДавлениеВетер, м/сВероятность осадков
    00:00Ясно и безоблачно+9°C65 %747 мм2.8 м/с2 %
    03:00Ясно и безоблачно+9°C65 %748 мм3.4 м/с2 %
    06:00Ясно и безоблачно+9°C74 %749 мм3.0 м/с2 %
    09:00Ясно и безоблачно+17°C55 %749 мм3.5 м/с2 %
    12:00Ясно и безоблачно+21°C43 %749 мм3.5 м/с2 %
    15:00Ясно и безоблачно+22°C38 %749 мм3.3 м/с2 %
    18:00Ясно и безоблачно+22°C38 %749 мм3.4 м/с2 %
    21:00Ясно и безоблачно+16°C54 %750 мм3.2 м/с2 %
  • 23мая
    Четверг
    +7°
    +22°
    Небольшая облачность
    ВремяПогодаТемператураВлажностьДавлениеВетер, м/сВероятность осадков
    00:00Ясно и безоблачно+11°C62 %750 мм2.6 м/с2 %
    03:00Ясно и безоблачно+9°C74 %751 мм2.3 м/с2 %
    06:00Ясно и безоблачно+10°C73 %752 мм2.5 м/с2 %
    09:00Ясно и безоблачно+17°C55 %752 мм2.3 м/с2 %
    12:00Ясно и безоблачно+20°C39 %753 мм3.7 м/с2 %
    15:00Небольшая облачность+22°C35 %753 мм3.1 м/с2 %
    18:00Практически безоблачно+22°C35 %752 мм3.0 м/с2 %
    21:00Ясно и безоблачно+15°C57 %752 мм2.2 м/с2 %
  • 24мая
    Пятница
    +7°
    +23°
    Практически безоблачно
    ВремяПогодаТемператураВлажностьДавлениеВетер, м/сВероятность осадков
    00:00Ясно и безоблачно+10°C65 %753 мм2.4 м/с2 %
    03:00Ясно и безоблачно+8°C73 %754 мм2.1 м/с2 %
    06:00Ясно и безоблачно+9°C75 %755 мм2.2 м/с2 %
    09:00Ясно и безоблачно+18°C48 %755 мм2.9 м/с2 %
    12:00Практически безоблачно+21°C38 %755 мм3.1 м/с2 %
    15:00Практически безоблачно+22°C37 %755 мм3.1 м/с2 %
    18:00Ясно и безоблачно+23°C39 %754 мм3.1 м/с9 %
    21:00Ясно и безоблачно+17°C58 %754 мм2.4 м/с2 %
Мы используем cookies
Соглашаюсь